Time;durP1;ratioP1;P1;durP2;ratioP2;P2;SDS_P1;SDS_P2;PMS_P1;PMS_P2;Temp;Humidity;BMP_temperature;BMP_pressure;BME280_temperature;BME280_humidity;BME280_pressure;Samples;Min_cycle;Max_cycle;Signal;HPM_P1;HPM_P2
2022/05/23 00:01:55;;;;;;;0.00;0.00;;;;;;;;;;5092223;28;20095;-61
2022/05/23 00:04:21;;;;;;;0.00;0.00;;;;;;;;;;5091963;28;20073;-61
2022/05/23 00:06:46;;;;;;;0.00;0.00;;;;;;;;;;5091958;28;20036;-61
2022/05/23 00:09:12;;;;;;;0.00;0.00;;;;;;;;;;5092647;28;20242;-61
2022/05/23 00:11:38;;;;;;;0.08;0.08;;;;;;;;;;5091341;28;20027;-61
2022/05/23 00:14:03;;;;;;;0.00;0.00;;;;;;;;;;5091519;28;20153;-62
2022/05/23 00:16:33;;;;;;;0.00;0.00;;;;;;;;;;5092988;28;20028;-62
2022/05/23 00:18:58;;;;;;;0.00;0.00;;;;;;;;;;5090185;28;20028;-62
2022/05/23 00:21:23;;;;;;;0.03;0.03;;;;;;;;;;5092887;28;20165;-62
2022/05/23 00:23:48;;;;;;;0.80;0.45;;;;;;;;;;5093089;28;20012;-62
2022/05/23 00:26:16;;;;;;;0.10;0.10;;;;;;;;;;5092863;28;20020;-60
2022/05/23 00:28:42;;;;;;;0.00;0.00;;;;;;;;;;5092898;28;20257;-60
2022/05/23 00:31:07;;;;;;;0.10;0.10;;;;;;;;;;5091480;28;20027;-62
2022/05/23 00:36:16;;;;;;;0.00;0.00;;;;;;;;;;5090346;28;20093;-62
2022/05/23 00:38:41;;;;;;;0.00;0.00;;;;;;;;;;5090951;28;20036;-62
2022/05/23 00:44:09;;;;;;;0.00;0.00;;;;;;;;;;5090128;28;20579;-62
2022/05/23 00:46:34;;;;;;;0.00;0.00;;;;;;;;;;5091357;28;20091;-61
2022/05/23 00:49:04;;;;;;;0.00;0.00;;;;;;;;;;5090690;28;20109;-63
2022/05/23 00:51:29;;;;;;;;;;;;;;;;;;5090963;28;20031;-63
2022/05/23 00:53:56;;;;;;;0.00;0.00;;;;;;;;;;5091368;28;19908;-62
2022/05/23 00:56:25;;;;;;;0.00;0.00;;;;;;;;;;5081162;28;20782;-63
2022/05/23 00:58:53;;;;;;;0.00;0.00;;;;;;;;;;5091370;28;20059;-63
2022/05/23 01:01:19;;;;;;;0.00;0.00;;;;;;;;;;5090358;28;20658;-61
2022/05/23 01:03:45;;;;;;;1.10;1.10;;;;;;;;;;5091917;28;20045;-62
2022/05/23 01:06:10;;;;;;;0.00;0.00;;;;;;;;;;5090427;28;20091;-62
2022/05/23 01:08:36;;;;;;;0.10;0.10;;;;;;;;;;5085529;28;20086;-61
2022/05/23 01:11:01;;;;;;;0.00;0.00;;;;;;;;;;5087636;28;20024;-61
2022/05/23 01:13:26;;;;;;;0.10;0.10;;;;;;;;;;5090402;28;20023;-62
2022/05/23 01:15:52;;;;;;;0.10;0.10;;;;;;;;;;5091261;28;20826;-62
2022/05/23 01:18:17;;;;;;;0.25;0.25;;;;;;;;;;5090457;28;20530;-63
2022/05/23 01:20:45;;;;;;;0.65;0.65;;;;;;;;;;5089837;28;20020;-63
2022/05/23 01:23:20;;;;;;;0.70;0.32;;;;;;;;;;5089559;28;20011;-63
2022/05/23 01:25:47;;;;;;;0.25;0.25;;;;;;;;;;5091090;28;20034;-62
2022/05/23 01:28:15;;;;;;;0.13;0.13;;;;;;;;;;5089694;28;20069;-62
2022/05/23 01:30:41;;;;;;;0.00;0.00;;;;;;;;;;5090106;28;20047;-62
2022/05/23 01:33:07;;;;;;;0.20;0.20;;;;;;;;;;5088667;28;20054;-62
2022/05/23 01:35:33;;;;;;;0.80;0.80;;;;;;;;;;5090141;28;20112;-61
2022/05/23 01:37:58;;;;;;;0.00;0.00;;;;;;;;;;5089999;28;20135;-61
2022/05/23 01:40:24;;;;;;;0.00;0.00;;;;;;;;;;5090241;28;20028;-61
2022/05/23 01:42:49;;;;;;;0.00;0.00;;;;;;;;;;5091127;28;20039;-61
2022/05/23 01:45:16;;;;;;;0.40;0.40;;;;;;;;;;5087826;28;20024;-61
2022/05/23 01:47:42;;;;;;;0.00;0.00;;;;;;;;;;5084814;28;20020;-61
2022/05/23 01:50:07;;;;;;;0.35;0.35;;;;;;;;;;5091451;28;20455;-61
2022/05/23 01:52:33;;;;;;;0.30;0.30;;;;;;;;;;5091175;28;20089;-61
2022/05/23 01:54:59;;;;;;;0.30;0.30;;;;;;;;;;5090843;28;20019;-61
2022/05/23 01:57:24;;;;;;;0.20;0.15;;;;;;;;;;5091200;28;20020;-61
2022/05/23 02:02:33;;;;;;;0.47;0.47;;;;;;;;;;5089751;28;20035;-61
2022/05/23 02:04:59;;;;;;;0.32;0.32;;;;;;;;;;5090313;28;20462;-61
2022/05/23 02:07:25;;;;;;;0.20;0.20;;;;;;;;;;5090197;28;20036;-61
2022/05/23 02:09:50;;;;;;;0.10;0.10;;;;;;;;;;5089683;28;20047;-61
2022/05/23 02:12:18;;;;;;;1.35;0.65;;;;;;;;;;5088611;28;20380;-60
2022/05/23 02:14:45;;;;;;;0.00;0.00;;;;;;;;;;5090225;28;20024;-61
2022/05/23 02:17:13;;;;;;;0.00;0.00;;;;;;;;;;5090175;28;20016;-62
2022/05/23 02:19:39;;;;;;;0.00;0.00;;;;;;;;;;5089616;28;20036;-62
2022/05/23 02:22:04;;;;;;;1.17;1.17;;;;;;;;;;5086280;28;20012;-62
2022/05/23 02:24:29;;;;;;;0.00;0.00;;;;;;;;;;5088765;28;20069;-62
2022/05/23 02:26:55;;;;;;;0.28;0.28;;;;;;;;;;5088598;28;20521;-61
2022/05/23 02:29:20;;;;;;;0.15;0.15;;;;;;;;;;5086924;28;20070;-61
2022/05/23 02:31:48;;;;;;;0.00;0.00;;;;;;;;;;5085505;28;20472;-61
2022/05/23 02:34:14;;;;;;;0.00;0.00;;;;;;;;;;5088135;28;20035;-62
2022/05/23 02:36:39;;;;;;;0.00;0.00;;;;;;;;;;5088414;28;20028;-61
2022/05/23 02:39:04;;;;;;;0.00;0.00;;;;;;;;;;5087141;28;20372;-61
2022/05/23 02:41:29;;;;;;;0.00;0.00;;;;;;;;;;5086838;28;20012;-61
2022/05/23 02:43:55;;;;;;;0.00;0.00;;;;;;;;;;5088352;28;20012;-60
2022/05/23 02:46:20;;;;;;;0.00;0.00;;;;;;;;;;5087014;28;20023;-62
2022/05/23 02:48:45;;;;;;;0.00;0.00;;;;;;;;;;5088095;28;20073;-61
2022/05/23 02:51:10;;;;;;;0.00;0.00;;;;;;;;;;5086957;28;20035;-61
2022/05/23 02:53:36;;;;;;;0.30;0.30;;;;;;;;;;5088198;28;20085;-62
2022/05/23 02:56:01;;;;;;;0.00;0.00;;;;;;;;;;5090450;28;20024;-62
2022/05/23 02:58:26;;;;;;;0.10;0.10;;;;;;;;;;5090164;28;20054;-62
2022/05/23 03:00:51;;;;;;;0.30;0.30;;;;;;;;;;5088991;28;20052;-62
2022/05/23 03:03:17;;;;;;;0.13;0.13;;;;;;;;;;5089462;28;20062;-61
2022/05/23 03:05:43;;;;;;;0.22;0.22;;;;;;;;;;5089233;28;20145;-61
2022/05/23 03:08:10;;;;;;;0.05;0.05;;;;;;;;;;5087226;28;20032;-61
2022/05/23 03:10:36;;;;;;;0.00;0.00;;;;;;;;;;5088629;28;20020;-61
2022/05/23 03:13:01;;;;;;;0.65;0.65;;;;;;;;;;5088783;28;20425;-61
2022/05/23 03:15:28;;;;;;;0.00;0.00;;;;;;;;;;5066627;28;20024;-62
2022/05/23 03:17:54;;;;;;;0.00;0.00;;;;;;;;;;5089544;28;20072;-62
2022/05/23 03:20:19;;;;;;;0.00;0.00;;;;;;;;;;5088234;28;20469;-62
2022/05/23 03:28:12;;;;;;;0.00;0.00;;;;;;;;;;5091374;28;20113;-62
2022/05/23 03:30:37;;;;;;;0.10;0.10;;;;;;;;;;5092831;28;20066;-63
2022/05/23 03:33:03;;;;;;;0.10;0.10;;;;;;;;;;5092991;28;20035;-61
2022/05/23 03:35:29;;;;;;;0.00;0.00;;;;;;;;;;5092357;28;20112;-62
2022/05/23 03:37:55;;;;;;;0.25;0.25;;;;;;;;;;5092623;28;20024;-62
2022/05/23 03:40:20;;;;;;;0.00;0.00;;;;;;;;;;5091597;28;20024;-62
2022/05/23 03:42:45;;;;;;;0.20;0.20;;;;;;;;;;5092826;28;20530;-62
2022/05/23 03:45:11;;;;;;;0.75;0.75;;;;;;;;;;5090749;28;20065;-61
2022/05/23 03:47:36;;;;;;;1.40;1.30;;;;;;;;;;5092230;28;20016;-62
2022/05/23 03:50:01;;;;;;;0.10;0.10;;;;;;;;;;5089634;28;20024;-63
2022/05/23 03:52:27;;;;;;;0.00;0.00;;;;;;;;;;5091567;28;20095;-62
2022/05/23 03:54:52;;;;;;;0.10;0.10;;;;;;;;;;5090828;28;20028;-63
2022/05/23 03:57:17;;;;;;;0.00;0.00;;;;;;;;;;5091227;28;20058;-62
2022/05/23 03:59:45;;;;;;;0.75;0.20;;;;;;;;;;5092205;28;20059;-63
2022/05/23 04:02:10;;;;;;;0.20;0.20;;;;;;;;;;5089909;28;20080;-63
2022/05/23 04:04:35;;;;;;;0.08;0.08;;;;;;;;;;5092309;28;20016;-63
2022/05/23 04:07:02;;;;;;;1.10;1.10;;;;;;;;;;5089801;28;20044;-62
2022/05/23 04:09:28;;;;;;;0.25;0.25;;;;;;;;;;5090654;28;20449;-63
2022/05/23 04:11:53;;;;;;;0.00;0.00;;;;;;;;;;5090585;28;20066;-63
2022/05/23 04:14:18;;;;;;;0.63;0.63;;;;;;;;;;5090397;28;20031;-63
2022/05/23 04:16:45;;;;;;;0.25;0.25;;;;;;;;;;5090180;28;20024;-64
2022/05/23 04:19:11;;;;;;;0.00;0.00;;;;;;;;;;5090826;28;20724;-64
2022/05/23 04:21:38;;;;;;;0.00;0.00;;;;;;;;;;5090519;28;20108;-61
2022/05/23 04:24:04;;;;;;;0.00;0.00;;;;;;;;;;5072019;28;20031;-63
2022/05/23 04:26:29;;;;;;;0.00;0.00;;;;;;;;;;5090547;28;20020;-62
2022/05/23 04:28:55;;;;;;;0.00;0.00;;;;;;;;;;5091103;28;20053;-62
2022/05/23 04:31:20;;;;;;;0.00;0.00;;;;;;;;;;5090779;28;20104;-62
2022/05/23 04:36:29;;;;;;;0.00;0.00;;;;;;;;;;5089918;28;20538;-62
2022/05/23 04:38:54;;;;;;;0.00;0.00;;;;;;;;;;5090515;28;20020;-61
2022/05/23 04:41:19;;;;;;;0.00;0.00;;;;;;;;;;5088958;28;20111;-63
2022/05/23 04:43:45;;;;;;;0.00;0.00;;;;;;;;;;5090275;28;20027;-63
2022/05/23 04:46:10;;;;;;;0.00;0.00;;;;;;;;;;5088939;28;20024;-62
2022/05/23 04:51:19;;;;;;;0.00;0.00;;;;;;;;;;5089116;28;20097;-64
2022/05/23 04:53:44;;;;;;;0.00;0.00;;;;;;;;;;5090635;28;20548;-63
2022/05/23 04:56:09;;;;;;;0.00;0.00;;;;;;;;;;5089208;28;20107;-62
2022/05/23 04:58:34;;;;;;;0.00;0.00;;;;;;;;;;5089532;28;20040;-64
2022/05/23 05:01:00;;;;;;;0.00;0.00;;;;;;;;;;5092085;28;20055;-63
2022/05/23 05:03:25;;;;;;;0.00;0.00;;;;;;;;;;5089660;28;20457;-63
2022/05/23 05:05:51;;;;;;;0.00;0.00;;;;;;;;;;5090022;28;20233;-63
2022/05/23 05:08:16;;;;;;;11.50;0.52;;;;;;;;;;5089576;28;20883;-63
2022/05/23 05:10:41;;;;;;;0.00;0.00;;;;;;;;;;5089909;28;20020;-61
2022/05/23 05:13:07;;;;;;;0.08;0.08;;;;;;;;;;5089617;28;20368;-61
2022/05/23 05:15:33;;;;;;;0.00;0.00;;;;;;;;;;5089774;28;20110;-62
2022/05/23 05:17:58;;;;;;;0.08;0.08;;;;;;;;;;5090187;28;20076;-62
2022/05/23 05:20:24;;;;;;;0.45;0.45;;;;;;;;;;5087673;28;20475;-62
2022/05/23 05:22:50;;;;;;;0.10;0.10;;;;;;;;;;5089449;28;20022;-62
2022/05/23 05:25:16;;;;;;;0.25;0.25;;;;;;;;;;5089268;28;20012;-61
2022/05/23 05:27:42;;;;;;;0.00;0.00;;;;;;;;;;5088176;28;20471;-63
2022/05/23 05:30:08;;;;;;;0.00;0.00;;;;;;;;;;5089305;28;20024;-62
2022/05/23 05:32:37;;;;;;;0.17;0.17;;;;;;;;;;5090238;28;20035;-63
2022/05/23 05:35:05;;;;;;;0.00;0.00;;;;;;;;;;5089484;28;20032;-63
2022/05/23 05:37:33;;;;;;;0.00;0.00;;;;;;;;;;5088484;28;20031;-62
2022/05/23 05:40:01;;;;;;;0.00;0.00;;;;;;;;;;5088411;28;20038;-63
2022/05/23 05:42:30;;;;;;;0.00;0.00;;;;;;;;;;5086574;28;20027;-61
2022/05/23 05:44:58;;;;;;;0.23;0.23;;;;;;;;;;5088368;28;20015;-61
2022/05/23 05:47:24;;;;;;;0.00;0.00;;;;;;;;;;5088986;28;20305;-61
2022/05/23 05:49:52;;;;;;;4.80;4.38;;;;;;;;;;5088499;28;20036;-64
2022/05/23 05:52:18;;;;;;;0.00;0.00;;;;;;;;;;5051460;28;20044;-64
2022/05/23 05:54:44;;;;;;;0.00;0.00;;;;;;;;;;5087838;28;20028;-63
2022/05/23 05:57:11;;;;;;;0.93;0.93;;;;;;;;;;5087959;28;20016;-63
2022/05/23 05:59:36;;;;;;;0.68;0.15;;;;;;;;;;5088617;28;20019;-63
2022/05/23 06:02:02;;;;;;;0.00;0.00;;;;;;;;;;5088925;28;20469;-62
2022/05/23 06:04:27;;;;;;;0.00;0.00;;;;;;;;;;5087656;28;20016;-62
2022/05/23 06:12:20;;;;;;;0.80;0.80;;;;;;;;;;5087050;28;20043;-62
2022/05/23 06:14:45;;;;;;;1.73;1.63;;;;;;;;;;5088459;28;20027;-63
2022/05/23 06:17:11;;;;;;;0.73;0.68;;;;;;;;;;5088340;28;20039;-63
2022/05/23 06:19:40;;;;;;;0.63;0.63;;;;;;;;;;5086968;28;20043;-62
2022/05/23 06:22:06;;;;;;;0.00;0.00;;;;;;;;;;5086875;28;20020;-63
2022/05/23 06:24:31;;;;;;;0.30;0.30;;;;;;;;;;5088654;28;20031;-64
2022/05/23 06:26:57;;;;;;;0.10;0.10;;;;;;;;;;5086860;28;20122;-63
2022/05/23 06:29:22;;;;;;;0.00;0.00;;;;;;;;;;5088352;28;20032;-63
2022/05/23 06:31:47;;;;;;;0.38;0.38;;;;;;;;;;5088909;28;20034;-63
2022/05/23 06:34:13;;;;;;;0.00;0.00;;;;;;;;;;5087898;28;20701;-63
2022/05/23 06:36:38;;;;;;;0.38;0.38;;;;;;;;;;5088602;28;20024;-62
2022/05/23 06:39:04;;;;;;;1.02;0.28;;;;;;;;;;5088463;28;20061;-62
2022/05/23 06:41:29;;;;;;;0.60;0.60;;;;;;;;;;5088533;28;20027;-62
2022/05/23 06:43:54;;;;;;;0.43;0.30;;;;;;;;;;5088136;28;20127;-63
2022/05/23 06:46:19;;;;;;;0.70;0.70;;;;;;;;;;5087664;28;20017;-62
2022/05/23 06:48:45;;;;;;;0.10;0.10;;;;;;;;;;5087794;28;20503;-63
2022/05/23 06:51:11;;;;;;;0.43;0.43;;;;;;;;;;5088178;28;20101;-64
2022/05/23 06:53:36;;;;;;;0.00;0.00;;;;;;;;;;5088498;28;20476;-63
2022/05/23 06:56:02;;;;;;;1.45;0.43;;;;;;;;;;5085768;28;20110;-63
2022/05/23 06:58:27;;;;;;;0.00;0.00;;;;;;;;;;5088131;28;20105;-64
2022/05/23 07:00:53;;;;;;;4.28;0.40;;;;;;;;;;5087515;28;20028;-64
2022/05/23 07:03:19;;;;;;;1.02;1.02;;;;;;;;;;5088128;28;20024;-63
2022/05/23 07:13:56;;;;;;;0.70;0.65;;;;;;;;;;5088970;28;20031;-58
2022/05/23 07:16:22;;;;;;;1.05;1.05;;;;;;;;;;5086717;28;20843;-57
2022/05/23 07:18:48;;;;;;;0.57;0.57;;;;;;;;;;5088491;28;20027;-57
2022/05/23 07:21:13;;;;;;;0.52;0.52;;;;;;;;;;5087911;28;20094;-58
2022/05/23 07:23:39;;;;;;;0.28;0.28;;;;;;;;;;5089974;28;20024;-58
2022/05/23 07:26:05;;;;;;;0.75;0.75;;;;;;;;;;5087128;28;20020;-60
2022/05/23 07:28:30;;;;;;;1.80;0.80;;;;;;;;;;5088270;28;20061;-59
2022/05/23 07:30:56;;;;;;;0.00;0.00;;;;;;;;;;5087868;28;20024;-58
2022/05/23 07:33:21;;;;;;;0.73;0.43;;;;;;;;;;5083623;28;20016;-58
2022/05/23 07:35:52;;;;;;;12.90;0.65;;;;;;;;;;5086898;28;20056;-59
2022/05/23 07:38:19;;;;;;;1.60;1.50;;;;;;;;;;5085968;28;20040;-58
2022/05/23 07:40:48;;;;;;;0.65;0.65;;;;;;;;;;5083980;28;20099;-58
2022/05/23 07:43:15;;;;;;;0.00;0.00;;;;;;;;;;5083971;28;20024;-59
2022/05/23 07:45:40;;;;;;;0.45;0.17;;;;;;;;;;5086465;28;20073;-60
2022/05/23 07:48:06;;;;;;;0.13;0.13;;;;;;;;;;5087423;28;20016;-60
2022/05/23 07:50:31;;;;;;;0.20;0.20;;;;;;;;;;5083574;28;20074;-58
2022/05/23 08:01:08;;;;;;;0.05;0.05;;;;;;;;;;5087632;28;20042;-60
2022/05/23 08:03:33;;;;;;;0.00;0.00;;;;;;;;;;5066217;28;20020;-59
2022/05/23 08:05:59;;;;;;;0.00;0.00;;;;;;;;;;5088013;28;20435;-58
2022/05/23 08:08:26;;;;;;;0.00;0.00;;;;;;;;;;5089449;28;20516;-59
2022/05/23 08:10:51;;;;;;;0.00;0.00;;;;;;;;;;5091461;28;20012;-59
2022/05/23 08:13:19;;;;;;;0.08;0.08;;;;;;;;;;5090802;28;20042;-60
2022/05/23 08:15:44;;;;;;;0.00;0.00;;;;;;;;;;5092588;28;20024;-61
2022/05/23 08:18:15;;;;;;;0.00;0.00;;;;;;;;;;5091279;28;20020;-61
2022/05/23 08:20:40;;;;;;;0.00;0.00;;;;;;;;;;5091947;28;20290;-61
2022/05/23 08:23:05;;;;;;;0.00;0.00;;;;;;;;;;5090803;28;20476;-58
2022/05/23 08:25:31;;;;;;;0.00;0.00;;;;;;;;;;5091402;28;20039;-61
2022/05/23 08:27:56;;;;;;;0.90;0.90;;;;;;;;;;5091532;28;20024;-61
2022/05/23 08:30:22;;;;;;;0.00;0.00;;;;;;;;;;5091573;28;20516;-59
2022/05/23 08:32:47;;;;;;;0.00;0.00;;;;;;;;;;5091455;28;20119;-60
2022/05/23 08:35:13;;;;;;;0.00;0.00;;;;;;;;;;5092024;28;20030;-61
2022/05/23 08:37:38;;;;;;;0.00;0.00;;;;;;;;;;5092846;28;20424;-61
2022/05/23 08:40:05;;;;;;;0.00;0.00;;;;;;;;;;5091718;28;20352;-60
2022/05/23 08:42:35;;;;;;;0.28;0.28;;;;;;;;;;5091331;28;20008;-61
2022/05/23 08:45:12;;;;;;;0.00;0.00;;;;;;;;;;5089540;28;20461;-60
2022/05/23 08:47:48;;;;;;;0.32;0.32;;;;;;;;;;5091282;28;20043;-62
2022/05/23 08:50:18;;;;;;;0.00;0.00;;;;;;;;;;5090742;28;20032;-60
2022/05/23 08:52:43;;;;;;;0.00;0.00;;;;;;;;;;5090946;28;20027;-61
2022/05/23 08:55:35;;;;;;;0.50;0.50;;;;;;;;;;5090445;28;20016;-61
2022/05/23 08:58:08;;;;;;;0.00;0.00;;;;;;;;;;5085120;28;20319;-61
2022/05/23 09:00:35;;;;;;;1.75;0.70;;;;;;;;;;5090048;28;20098;-60
2022/05/23 09:03:13;;;;;;;0.00;0.00;;;;;;;;;;5090240;28;20040;-60
2022/05/23 09:05:40;;;;;;;0.00;0.00;;;;;;;;;;5090675;28;20434;-61
2022/05/23 09:08:11;;;;;;;0.00;0.00;;;;;;;;;;5089827;28;20040;-61
2022/05/23 09:10:55;;;;;;;0.00;0.00;;;;;;;;;;5089341;28;20516;-60
2022/05/23 09:13:20;;;;;;;0.10;0.03;;;;;;;;;;5088147;28;20107;-60
2022/05/23 09:15:47;;;;;;;0.00;0.00;;;;;;;;;;5091065;28;20091;-60
2022/05/23 09:18:13;;;;;;;0.35;0.35;;;;;;;;;;5089686;28;20032;-60
2022/05/23 09:20:47;;;;;;;0.00;0.00;;;;;;;;;;5086781;28;20620;-60
2022/05/23 09:23:32;;;;;;;0.00;0.00;;;;;;;;;;5083728;28;20020;-61
2022/05/23 09:25:59;;;;;;;0.00;0.00;;;;;;;;;;5086197;28;20475;-58
2022/05/23 09:28:24;;;;;;;1.33;1.33;;;;;;;;;;5089148;28;20035;-59
2022/05/23 09:30:56;;;;;;;0.00;0.00;;;;;;;;;;5088813;28;20027;-59
2022/05/23 09:33:22;;;;;;;0.00;0.00;;;;;;;;;;5088127;28;20404;-60
2022/05/23 09:35:47;;;;;;;0.17;0.10;;;;;;;;;;5085985;28;20019;-60
2022/05/23 09:38:14;;;;;;;0.00;0.00;;;;;;;;;;5087553;28;20035;-60
2022/05/23 09:40:39;;;;;;;0.00;0.00;;;;;;;;;;5088030;28;20311;-62
2022/05/23 09:49:12;;;;;;;0.47;0.47;;;;;;;;;;5085990;28;20088;-60
2022/05/23 09:51:50;;;;;;;0.00;0.00;;;;;;;;;;5087444;28;20111;-62
2022/05/23 09:54:20;;;;;;;0.50;0.10;;;;;;;;;;5085755;28;20604;-60
2022/05/23 09:56:45;;;;;;;0.00;0.00;;;;;;;;;;5086006;28;20039;-60
2022/05/23 09:59:25;;;;;;;0.00;0.00;;;;;;;;;;5086540;28;20429;-60
2022/05/23 10:01:50;;;;;;;0.00;0.00;;;;;;;;;;5089397;28;20024;-60
2022/05/23 10:04:17;;;;;;;0.38;0.38;;;;;;;;;;5088910;28;20480;-61
2022/05/23 10:06:51;;;;;;;0.75;0.65;;;;;;;;;;5088843;28;20408;-61
2022/05/23 10:09:28;;;;;;;0.00;0.00;;;;;;;;;;5086006;28;20024;-60
2022/05/23 10:11:56;;;;;;;0.88;0.40;;;;;;;;;;5089236;28;20050;-60
2022/05/23 10:14:25;;;;;;;0.00;0.00;;;;;;;;;;5088113;28;20024;-61
2022/05/23 10:16:54;;;;;;;0.00;0.00;;;;;;;;;;5088718;28;20040;-58
2022/05/23 10:19:19;;;;;;;;;;;;;;;;;;5089752;28;20028;-59
2022/05/23 10:21:45;;;;;;;0.00;0.00;;;;;;;;;;5087690;28;19930;-59
2022/05/23 10:24:19;;;;;;;0.00;0.00;;;;;;;;;;5088785;28;20380;-58
2022/05/23 10:26:56;;;;;;;0.30;0.30;;;;;;;;;;5088526;28;20050;-59
2022/05/23 10:29:24;;;;;;;1.65;0.43;;;;;;;;;;5069211;28;20595;-59
2022/05/23 10:31:54;;;;;;;0.00;0.00;;;;;;;;;;5088129;28;20512;-58
2022/05/23 10:34:38;;;;;;;0.00;0.00;;;;;;;;;;5087256;28;20266;-57
2022/05/23 10:37:05;;;;;;;0.00;0.00;;;;;;;;;;5060730;28;20421;-59
2022/05/23 10:42:17;;;;;;;0.32;0.32;;;;;;;;;;5088362;28;20039;-59
2022/05/23 10:44:53;;;;;;;0.00;0.00;;;;;;;;;;5088388;28;20020;-59
2022/05/23 10:47:24;;;;;;;0.00;0.00;;;;;;;;;;5065665;28;20032;-59
2022/05/23 10:49:57;;;;;;;0.10;0.10;;;;;;;;;;5087918;28;20043;-60
2022/05/23 10:52:32;;;;;;;0.05;0.05;;;;;;;;;;5086884;28;20039;-59
2022/05/23 10:55:08;;;;;;;1.45;1.35;;;;;;;;;;5069979;28;20581;-58
2022/05/23 10:57:45;;;;;;;0.00;0.00;;;;;;;;;;5088587;28;20028;-59
2022/05/23 11:00:15;;;;;;;0.30;0.30;;;;;;;;;;5088042;28;20066;-58
2022/05/23 11:02:41;;;;;;;0.30;0.28;;;;;;;;;;5088468;28;20033;-58
2022/05/23 11:05:06;;;;;;;0.60;0.60;;;;;;;;;;5088591;28;20032;-60
2022/05/23 11:07:34;;;;;;;0.00;0.00;;;;;;;;;;5086622;28;20043;-59
2022/05/23 11:10:20;;;;;;;0.40;0.40;;;;;;;;;;5083680;28;20621;-59
2022/05/23 11:12:54;;;;;;;0.00;0.00;;;;;;;;;;5087413;28;20027;-59
2022/05/23 11:15:28;;;;;;;0.10;0.10;;;;;;;;;;5088510;28;20096;-59
2022/05/23 11:17:53;;;;;;;0.47;0.47;;;;;;;;;;5088491;28;20081;-58
2022/05/23 11:20:28;;;;;;;1.25;1.15;;;;;;;;;;5087671;28;20040;-59
2022/05/23 11:22:59;;;;;;;2.75;0.30;;;;;;;;;;5088200;28;20103;-59
2022/05/23 11:25:43;;;;;;;0.00;0.00;;;;;;;;;;5079191;28;20023;-59
2022/05/23 11:33:52;;;;;;;0.93;0.93;;;;;;;;;;5083503;28;20031;-60
2022/05/23 11:36:24;;;;;;;0.10;0.10;;;;;;;;;;5086583;28;20024;-59
2022/05/23 11:38:51;;;;;;;0.08;0.08;;;;;;;;;;5087398;28;20025;-59
2022/05/23 11:41:34;;;;;;;0.00;0.00;;;;;;;;;;5087704;28;20028;-59
2022/05/23 11:44:01;;;;;;;0.30;0.30;;;;;;;;;;5088793;28;20093;-59
2022/05/23 11:46:27;;;;;;;0.00;0.00;;;;;;;;;;5091399;28;20020;-58
2022/05/23 11:48:55;;;;;;;1.35;0.55;;;;;;;;;;5091331;28;20016;-58
2022/05/23 11:51:23;;;;;;;0.30;0.30;;;;;;;;;;5088736;28;20106;-58
2022/05/23 11:54:00;;;;;;;0.00;0.00;;;;;;;;;;5091458;28;20027;-59
2022/05/23 11:56:37;;;;;;;0.65;0.40;;;;;;;;;;5090899;28;20612;-60
2022/05/23 11:59:04;;;;;;;0.00;0.00;;;;;;;;;;5091604;28;20035;-61
2022/05/23 12:01:30;;;;;;;0.00;0.00;;;;;;;;;;5088765;28;20480;-60
2022/05/23 12:03:56;;;;;;;0.00;0.00;;;;;;;;;;5091239;28;20360;-60
2022/05/23 12:06:24;;;;;;;0.00;0.00;;;;;;;;;;5091517;28;20028;-61
2022/05/23 12:08:58;;;;;;;0.08;0.08;;;;;;;;;;5092159;28;20146;-60
2022/05/23 12:11:35;;;;;;;0.03;0.03;;;;;;;;;;5082219;28;20035;-60
2022/05/23 12:14:12;;;;;;;0.00;0.00;;;;;;;;;;5091255;28;20345;-61
2022/05/23 12:16:40;;;;;;;0.15;0.15;;;;;;;;;;5091252;28;20021;-60
2022/05/23 12:19:12;;;;;;;0.30;0.30;;;;;;;;;;5090031;28;20028;-61
2022/05/23 12:21:40;;;;;;;0.85;0.85;;;;;;;;;;5088841;28;20020;-60
2022/05/23 12:24:20;;;;;;;0.00;0.00;;;;;;;;;;5078557;28;20016;-60
2022/05/23 12:26:53;;;;;;;0.00;0.00;;;;;;;;;;5089643;28;20037;-60
2022/05/23 12:29:34;;;;;;;15.65;14.90;;;;;;;;;;5089463;28;20039;-61
2022/05/23 12:32:06;;;;;;;0.08;0.08;;;;;;;;;;5089298;28;20050;-61
2022/05/23 12:34:39;;;;;;;0.00;0.00;;;;;;;;;;5087802;28;20096;-60
2022/05/23 12:37:04;;;;;;;0.00;0.00;;;;;;;;;;5090188;28;20495;-60
2022/05/23 12:40:10;;;;;;;1.43;0.63;;;;;;;;;;5089151;28;20024;-60
2022/05/23 12:42:56;;;;;;;0.65;0.20;;;;;;;;;;5004492;28;20280;-62
2022/05/23 12:45:22;;;;;;;0.10;0.10;;;;;;;;;;5004430;28;20473;-61
2022/05/23 12:47:47;;;;;;;0.28;0.28;;;;;;;;;;5005217;28;20109;-64
2022/05/23 12:50:24;;;;;;;0.00;0.00;;;;;;;;;;5004775;28;20038;-60
2022/05/23 12:53:02;;;;;;;0.00;0.00;;;;;;;;;;5007869;28;20269;-62
2022/05/23 12:55:27;;;;;;;0.00;0.00;;;;;;;;;;5006915;28;20025;-59
2022/05/23 12:58:05;;;;;;;0.00;0.00;;;;;;;;;;5008339;28;20290;-58
2022/05/23 13:00:48;;;;;;;0.00;0.00;;;;;;;;;;5007787;28;20033;-61
2022/05/23 13:03:27;;;;;;;0.25;0.25;;;;;;;;;;5007561;28;20292;-58
2022/05/23 13:06:11;;;;;;;0.00;0.00;;;;;;;;;;5006764;28;20463;-58
2022/05/23 13:08:55;;;;;;;0.35;0.35;;;;;;;;;;5003003;28;20050;-61
2022/05/23 13:11:28;;;;;;;0.00;0.00;;;;;;;;;;4993403;28;20018;-59
2022/05/23 13:13:58;;;;;;;0.00;0.00;;;;;;;;;;5033244;28;20804;-59
2022/05/23 13:16:25;;;;;;;0.00;0.00;;;;;;;;;;5063047;28;20112;-59
2022/05/23 13:27:08;;;;;;;0.03;0.03;;;;;;;;;;5068370;28;20389;-59
2022/05/23 13:29:34;;;;;;;;;;;;;;;;;;5069025;28;20028;-60
2022/05/23 13:32:01;;;;;;;1.10;1.00;;;;;;;;;;5067603;28;19956;-60
2022/05/23 13:34:34;;;;;;;0.73;0.73;;;;;;;;;;5068679;28;20050;-60
2022/05/23 13:36:59;;;;;;;1.08;1.08;;;;;;;;;;5082310;28;20425;-61
2022/05/23 13:39:25;;;;;;;0.32;0.32;;;;;;;;;;5072736;28;20115;-61
2022/05/23 13:41:50;;;;;;;0.03;0.03;;;;;;;;;;5078662;28;20023;-59
2022/05/23 13:44:19;;;;;;;0.00;0.00;;;;;;;;;;5082456;28;20099;-59
2022/05/23 13:46:44;;;;;;;;;;;;;;;;;;5074907;28;20055;-57
2022/05/23 13:49:12;;;;;;;0.00;0.00;;;;;;;;;;5085897;28;19911;-58
2022/05/23 13:51:57;;;;;;;0.00;0.00;;;;;;;;;;5081966;28;20396;-57
2022/05/23 13:54:40;;;;;;;25.77;2.55;;;;;;;;;;5079174;28;20469;-59
2022/05/23 13:57:09;;;;;;;0.10;0.10;;;;;;;;;;5076822;28;20020;-58
2022/05/23 13:59:40;;;;;;;0.00;0.00;;;;;;;;;;5075450;28;20024;-58
2022/05/23 14:02:09;;;;;;;0.00;0.00;;;;;;;;;;5077151;28;20020;-59
2022/05/23 14:04:39;;;;;;;1.00;0.38;;;;;;;;;;5078835;28;20044;-58
2022/05/23 14:07:08;;;;;;;0.00;0.00;;;;;;;;;;5086957;28;20040;-58
2022/05/23 14:09:34;;;;;;;0.10;0.10;;;;;;;;;;5088198;28;20024;-57
2022/05/23 14:12:04;;;;;;;1.13;1.13;;;;;;;;;;5085703;28;20119;-59
2022/05/23 14:14:34;;;;;;;0.90;0.90;;;;;;;;;;5083757;28;20091;-58
2022/05/23 14:17:01;;;;;;;0.20;0.20;;;;;;;;;;5083317;28;20027;-59
2022/05/23 14:19:26;;;;;;;0.63;0.57;;;;;;;;;;5084503;28;20441;-58
2022/05/23 14:22:03;;;;;;;0.00;0.00;;;;;;;;;;5087833;28;20109;-60
2022/05/23 14:24:29;;;;;;;0.00;0.00;;;;;;;;;;5064536;28;20278;-56
2022/05/23 14:27:11;;;;;;;0.00;0.00;;;;;;;;;;5083726;28;20026;-58
2022/05/23 14:29:37;;;;;;;0.00;0.00;;;;;;;;;;5050991;28;20419;-58
2022/05/23 14:32:02;;;;;;;0.45;0.35;;;;;;;;;;5085763;28;20027;-58
2022/05/23 14:34:28;;;;;;;0.00;0.00;;;;;;;;;;5083608;28;20113;-59
2022/05/23 14:36:56;;;;;;;0.00;0.00;;;;;;;;;;5086612;28;20132;-58
2022/05/23 14:39:24;;;;;;;0.00;0.00;;;;;;;;;;5084849;28;20028;-58
2022/05/23 14:41:50;;;;;;;0.20;0.20;;;;;;;;;;5084658;28;20035;-58
2022/05/23 14:44:19;;;;;;;0.00;0.00;;;;;;;;;;5085306;28;20016;-58
2022/05/23 14:47:07;;;;;;;0.25;0.25;;;;;;;;;;5070248;28;20483;-59
2022/05/23 14:49:39;;;;;;;0.00;0.00;;;;;;;;;;5085606;28;20373;-59
2022/05/23 14:52:20;;;;;;;0.00;0.00;;;;;;;;;;5084047;28;20054;-58
2022/05/23 15:00:44;;;;;;;0.00;0.00;;;;;;;;;;5083612;28;20080;-59
2022/05/23 15:03:12;;;;;;;0.13;0.13;;;;;;;;;;5083156;28;20036;-58
2022/05/23 15:05:39;;;;;;;0.00;0.00;;;;;;;;;;5082286;28;20023;-59
2022/05/23 15:08:04;;;;;;;0.40;0.40;;;;;;;;;;5066651;28;20139;-57
2022/05/23 15:10:31;;;;;;;1.48;1.48;;;;;;;;;;5065840;28;20130;-58
2022/05/23 15:12:57;;;;;;;0.00;0.00;;;;;;;;;;5067943;28;20538;-58
2022/05/23 15:15:23;;;;;;;0.00;0.00;;;;;;;;;;5067051;28;20028;-59
2022/05/23 15:17:48;;;;;;;0.70;0.50;;;;;;;;;;5069777;28;20458;-60
2022/05/23 15:20:13;;;;;;;0.00;0.00;;;;;;;;;;5071460;28;20456;-59
2022/05/23 15:22:41;;;;;;;0.30;0.30;;;;;;;;;;5070116;28;20097;-59
2022/05/23 15:25:06;;;;;;;1.85;1.75;;;;;;;;;;5069706;28;20017;-60
2022/05/23 15:27:32;;;;;;;1.88;0.43;;;;;;;;;;5072512;28;20074;-59
2022/05/23 15:30:01;;;;;;;0.15;0.15;;;;;;;;;;5071926;28;20104;-59
2022/05/23 15:32:26;;;;;;;0.32;0.32;;;;;;;;;;5070376;28;20066;-59
2022/05/23 15:34:51;;;;;;;3.35;2.97;;;;;;;;;;5071851;28;20025;-59
2022/05/23 15:37:16;;;;;;;0.00;0.00;;;;;;;;;;5070023;28;20035;-59
2022/05/23 15:39:42;;;;;;;0.08;0.08;;;;;;;;;;5067926;28;20428;-59
2022/05/23 15:42:10;;;;;;;0.00;0.00;;;;;;;;;;5070759;28;20021;-59
2022/05/23 15:44:37;;;;;;;0.00;0.00;;;;;;;;;;5070777;28;20107;-59
2022/05/23 15:47:05;;;;;;;0.00;0.00;;;;;;;;;;5071044;28;20017;-59
2022/05/23 15:49:31;;;;;;;7.28;0.82;;;;;;;;;;5070425;28;20039;-60
2022/05/23 15:51:56;;;;;;;0.73;0.73;;;;;;;;;;5070954;28;20032;-59
2022/05/23 15:54:21;;;;;;;0.25;0.25;;;;;;;;;;5068893;28;20477;-59
2022/05/23 15:56:46;;;;;;;2.42;1.60;;;;;;;;;;5070825;28;20032;-59
2022/05/23 15:59:13;;;;;;;1.65;1.55;;;;;;;;;;5071227;28;20056;-58